Time;durP1;ratioP1;P1;durP2;ratioP2;P2;SDS_P1;SDS_P2;PMS_P1;PMS_P2;Temp;Humidity;BMP_temperature;BMP_pressure;BME280_temperature;BME280_humidity;BME280_pressure;Samples;Min_cycle;Max_cycle;Signal;HPM_P1;HPM_P2
2022/03/14 00:01:39;;;;;;;6.25;4.10;;;-1.20;63.00;;;;;;5040298;28;20071;-67
2022/03/14 00:04:04;;;;;;;10.93;5.18;;;-1.20;61.70;;;;;;5041342;28;20452;-67
2022/03/14 00:06:30;;;;;;;8.82;4.72;;;-1.10;61.10;;;;;;5043372;28;20037;-67
2022/03/14 00:08:57;;;;;;;5.75;4.10;;;-1.00;62.20;;;;;;5041905;28;20033;-66
2022/03/14 00:11:26;;;;;;;6.07;4.10;;;-1.00;61.90;;;;;;5039133;28;20057;-67
2022/03/14 00:13:54;;;;;;;10.10;5.35;;;-1.10;62.30;;;;;;5037711;28;20066;-66
2022/03/14 00:16:25;;;;;;;13.43;5.70;;;-1.10;62.90;;;;;;5041462;28;20223;-67
2022/03/14 00:18:53;;;;;;;23.10;9.87;;;-1.00;61.40;;;;;;5039324;28;20041;-67
2022/03/14 00:21:23;;;;;;;7.20;3.80;;;-0.80;60.20;;;;;;5046791;28;20093;-67
2022/03/14 00:23:53;;;;;;;12.10;4.95;;;-0.80;60.60;;;;;;5039315;28;20037;-67
2022/03/14 00:26:22;;;;;;;12.23;6.50;;;-0.90;61.80;;;;;;5041202;28;20053;-67
2022/03/14 00:28:48;;;;;;;7.38;4.35;;;-0.90;63.00;;;;;;5039608;28;20064;-75
2022/03/14 00:31:14;;;;;;;5.03;3.92;;;-1.00;62.20;;;;;;5038854;28;20037;-77
2022/03/14 00:33:40;;;;;;;8.05;4.00;;;-1.10;62.00;;;;;;5038342;28;20184;-77
2022/03/14 00:36:08;;;;;;;7.35;4.43;;;-1.20;62.30;;;;;;5038651;28;20067;-77
2022/03/14 00:38:34;;;;;;;7.55;4.30;;;-1.30;61.90;;;;;;5038074;28;20059;-73
2022/03/14 00:41:00;;;;;;;6.78;4.20;;;-1.40;62.00;;;;;;5039432;28;20413;-77
2022/03/14 00:43:27;;;;;;;9.45;4.18;;;-1.50;62.90;;;;;;5045985;28;20037;-77
2022/03/14 00:45:52;;;;;;;9.73;5.28;;;-1.40;64.50;;;;;;5035453;28;20044;-77
2022/03/14 00:48:18;;;;;;;10.45;6.00;;;-1.40;63.50;;;;;;5041647;28;20045;-77
2022/03/14 00:50:44;;;;;;;13.90;8.00;;;-1.40;62.80;;;;;;5038412;28;20037;-76
2022/03/14 00:53:09;;;;;;;14.50;8.25;;;-1.30;61.80;;;;;;5043193;28;20132;-77
2022/03/14 00:55:35;;;;;;;8.75;5.07;;;-1.20;62.40;;;;;;5043224;28;20041;-82
2022/03/14 00:58:01;;;;;;;6.80;4.40;;;-1.20;62.80;;;;;;5042817;28;20057;-79
2022/03/14 01:00:27;;;;;;;7.28;4.40;;;-1.20;62.40;;;;;;5024422;28;20057;-80
2022/03/14 01:02:53;;;;;;;8.18;4.88;;;-1.30;63.00;;;;;;5028663;28;20461;-79
2022/03/14 01:05:19;;;;;;;7.30;4.85;;;-1.40;63.70;;;;;;5042579;28;20045;-78
2022/03/14 01:07:45;;;;;;;10.50;5.03;;;-1.50;63.30;;;;;;5039271;28;20051;-78
2022/03/14 01:10:11;;;;;;;7.07;4.97;;;-1.50;64.00;;;;;;5047133;28;20036;-78
2022/03/14 01:12:37;;;;;;;7.60;4.47;;;-1.40;63.90;;;;;;5039277;28;20041;-78
2022/03/14 01:15:04;;;;;;;6.55;4.32;;;-1.40;63.30;;;;;;5040199;28;20059;-78
2022/03/14 01:17:29;;;;;;;7.10;4.88;;;-1.50;63.30;;;;;;5035796;28;21964;-78
2022/03/14 01:19:55;;;;;;;8.82;4.82;;;-1.50;64.60;;;;;;5039770;28;20040;-78
2022/03/14 01:22:21;;;;;;;7.05;4.53;;;-1.50;65.20;;;;;;5046829;28;21618;-80
2022/03/14 01:24:46;;;;;;;6.72;4.50;;;-1.50;65.00;;;;;;5036174;28;22193;-79
2022/03/14 01:27:12;;;;;;;14.23;4.88;;;-1.60;64.10;;;;;;5042058;28;20133;-79
2022/03/14 01:29:38;;;;;;;6.85;4.78;;;-1.70;63.90;;;;;;5043831;28;20037;-79
2022/03/14 01:32:06;;;;;;;9.80;5.10;;;-1.80;64.50;;;;;;5037367;28;20522;-79
2022/03/14 01:34:32;;;;;;;8.48;4.60;;;-1.90;65.40;;;;;;5024675;28;20132;-79
2022/03/14 01:36:58;;;;;;;6.25;4.05;;;-1.90;65.60;;;;;;5044828;28;20036;-79
2022/03/14 01:39:24;;;;;;;7.63;4.60;;;-2.00;65.10;;;;;;5037625;28;20049;-79
2022/03/14 01:41:51;;;;;;;8.00;4.57;;;-2.00;65.30;;;;;;5037088;28;20120;-81
2022/03/14 01:44:17;;;;;;;10.05;5.03;;;-1.90;65.20;;;;;;5037426;28;20037;-67
2022/03/14 01:46:43;;;;;;;7.40;4.97;;;-2.00;66.10;;;;;;5043023;28;20047;-67
2022/03/14 01:49:13;;;;;;;6.28;4.75;;;-2.00;66.10;;;;;;5046793;28;20045;-67
2022/03/14 01:51:40;;;;;;;8.07;5.13;;;-2.00;66.00;;;;;;5023446;28;20052;-67
2022/03/14 01:54:07;;;;;;;9.73;4.88;;;-2.00;65.80;;;;;;5037385;28;20051;-67
2022/03/14 01:56:34;;;;;;;5.80;4.57;;;-1.90;66.10;;;;;;5039631;28;20036;-67
2022/03/14 01:59:00;;;;;;;9.65;4.38;;;-1.90;66.20;;;;;;5040067;28;20151;-67
2022/03/14 02:01:26;;;;;;;6.80;4.55;;;-2.10;65.10;;;;;;5037372;28;20163;-67
2022/03/14 02:03:51;;;;;;;7.60;4.78;;;-2.20;66.80;;;;;;5045529;28;20124;-80
2022/03/14 02:06:18;;;;;;;9.15;4.85;;;-2.20;67.40;;;;;;5048072;28;20048;-80
2022/03/14 02:08:44;;;;;;;10.45;4.90;;;-2.20;67.10;;;;;;5043007;28;20036;-80
2022/03/14 02:11:10;;;;;;;8.43;4.88;;;-2.20;66.90;;;;;;5038665;28;20469;-80
2022/03/14 02:13:36;;;;;;;7.53;5.13;;;-2.20;67.90;;;;;;5042169;28;20131;-80
2022/03/14 02:16:01;;;;;;;8.70;4.65;;;-2.20;67.00;;;;;;5042834;28;20784;-80
2022/03/14 02:18:27;;;;;;;7.65;4.85;;;-2.20;66.60;;;;;;5038844;28;20175;-80
2022/03/14 02:20:53;;;;;;;8.77;5.32;;;-2.30;67.30;;;;;;5037432;28;20187;-80
2022/03/14 02:23:19;;;;;;;7.22;5.03;;;-2.30;67.00;;;;;;5040217;28;20040;-67
2022/03/14 02:25:55;;;;;;;9.57;5.68;;;-2.30;67.40;;;;;;5041831;28;20123;-67
2022/03/14 02:28:22;;;;;;;8.55;5.35;;;-2.30;66.30;;;;;;5041071;28;20090;-67
2022/03/14 02:30:51;;;;;;;8.55;5.18;;;-2.40;67.00;;;;;;5040170;28;20032;-67
2022/03/14 02:33:17;;;;;;;7.97;4.97;;;-2.40;67.50;;;;;;5039890;28;20044;-67
2022/03/14 02:35:43;;;;;;;8.25;4.75;;;-2.50;67.30;;;;;;5040766;28;20044;-67
2022/03/14 02:38:15;;;;;;;7.13;4.70;;;-2.50;67.60;;;;;;5039404;28;20045;-67
2022/03/14 02:40:46;;;;;;;9.35;5.05;;;-2.40;68.00;;;;;;5038479;28;20048;-81
2022/03/14 02:43:24;;;;;;;6.47;4.80;;;-2.50;68.20;;;;;;5039835;28;20501;-81
2022/03/14 02:45:52;;;;;;;11.25;6.00;;;-2.30;66.90;;;;;;5037100;28;20059;-81
2022/03/14 02:48:19;;;;;;;8.60;5.30;;;-2.20;66.00;;;;;;5038571;28;20049;-82
2022/03/14 02:50:48;;;;;;;9.13;5.55;;;-2.20;66.00;;;;;;5040652;28;20041;-82
2022/03/14 02:53:15;;;;;;;9.10;5.68;;;-2.40;66.80;;;;;;5031992;28;20082;-82
2022/03/14 02:55:41;;;;;;;8.68;5.15;;;-2.40;68.50;;;;;;5038666;28;20040;-82
2022/03/14 02:58:07;;;;;;;10.38;5.80;;;-2.50;68.40;;;;;;5039906;28;20599;-82
2022/03/14 03:00:35;;;;;;;11.30;5.30;;;-2.50;68.60;;;;;;5036980;28;20473;-67
2022/03/14 03:03:03;;;;;;;9.73;6.22;;;-2.50;68.00;;;;;;5017685;28;20036;-67
2022/03/14 03:05:31;;;;;;;8.88;5.35;;;-2.40;68.00;;;;;;5038561;28;20033;-67
2022/03/14 03:08:00;;;;;;;11.95;6.18;;;-2.30;67.40;;;;;;5034115;28;20812;-67
2022/03/14 03:10:27;;;;;;;11.10;6.88;;;-2.10;66.70;;;;;;5023708;28;20036;-67
2022/03/14 03:12:52;;;;;;;11.57;6.93;;;-2.00;66.20;;;;;;5038403;28;20045;-67
2022/03/14 03:15:19;;;;;;;15.45;6.80;;;-2.00;67.20;;;;;;5042038;28;20041;-66
2022/03/14 03:17:44;;;;;;;15.38;5.78;;;-2.00;67.60;;;;;;5037601;28;20102;-67
2022/03/14 03:20:11;;;;;;;8.20;5.43;;;-2.00;68.90;;;;;;5017094;28;20041;-67
2022/03/14 03:22:38;;;;;;;10.15;5.90;;;-2.10;67.80;;;;;;5024490;28;20041;-67
2022/03/14 03:25:08;;;;;;;9.85;5.53;;;-2.30;66.60;;;;;;5037003;28;20474;-67
2022/03/14 03:27:34;;;;;;;9.55;5.35;;;-2.50;66.20;;;;;;5039544;28;20044;-67
2022/03/14 03:30:00;;;;;;;8.52;5.55;;;-2.60;68.10;;;;;;5039616;28;20048;-67
2022/03/14 03:32:25;;;;;;;10.80;5.53;;;-2.70;68.30;;;;;;5042022;28;20052;-67
2022/03/14 03:34:51;;;;;;;11.52;6.22;;;-2.70;69.20;;;;;;5041464;28;20065;-67
2022/03/14 03:37:17;;;;;;;10.60;6.43;;;-2.60;69.40;;;;;;5040822;28;20071;-67
2022/03/14 03:39:43;;;;;;;9.70;6.15;;;-2.60;69.40;;;;;;5020727;28;20072;-67
2022/03/14 03:42:09;;;;;;;9.10;6.28;;;-2.60;68.30;;;;;;5020235;28;21301;-67
2022/03/14 03:44:35;;;;;;;16.13;7.15;;;-2.50;68.30;;;;;;5016954;28;20656;-67
2022/03/14 03:47:01;;;;;;;9.23;5.88;;;-2.50;68.40;;;;;;5019629;28;20319;-67
2022/03/14 03:49:27;;;;;;;8.90;5.32;;;-2.50;68.20;;;;;;5018492;28;20048;-67
2022/03/14 03:51:53;;;;;;;9.30;5.63;;;-2.60;68.10;;;;;;5021307;28;20116;-66
2022/03/14 03:54:19;;;;;;;12.35;6.93;;;-2.60;69.50;;;;;;5019108;28;20148;-67
2022/03/14 03:56:46;;;;;;;8.55;5.72;;;-2.60;70.50;;;;;;5023697;28;20131;-83
2022/03/14 03:59:11;;;;;;;8.48;5.55;;;-2.60;71.10;;;;;;5014024;28;20057;-83
2022/03/14 04:01:37;;;;;;;11.40;6.13;;;-2.70;69.60;;;;;;5016071;28;20526;-83
2022/03/14 04:04:04;;;;;;;8.85;5.65;;;-2.90;69.80;;;;;;5018805;28;20042;-83
2022/03/14 04:06:30;;;;;;;25.42;12.68;;;-2.80;72.50;;;;;;5019993;28;20398;-82
2022/03/14 04:09:00;;;;;;;22.67;12.02;;;-2.90;72.20;;;;;;5017946;28;20029;-82
2022/03/14 04:11:26;;;;;;;84.45;37.90;;;-2.80;71.70;;;;;;5021447;28;20107;-83
2022/03/14 04:13:53;;;;;;;132.15;57.65;;;-2.70;71.10;;;;;;5026170;28;20065;-83
2022/03/14 04:16:21;;;;;;;31.30;16.92;;;-2.60;70.30;;;;;;5021314;28;20041;-67
2022/03/14 04:18:47;;;;;;;19.13;11.52;;;-2.60;70.70;;;;;;5029399;28;20462;-66
2022/03/14 04:21:14;;;;;;;11.07;6.72;;;-2.70;69.60;;;;;;5022715;28;20048;-66
2022/03/14 04:23:40;;;;;;;15.23;6.63;;;-2.90;70.80;;;;;;5029007;28;20045;-67
2022/03/14 04:26:06;;;;;;;9.80;6.18;;;-3.00;72.10;;;;;;5019798;28;20565;-67
2022/03/14 04:28:31;;;;;;;9.52;5.55;;;-3.10;72.40;;;;;;5021974;28;20062;-67
2022/03/14 04:30:58;;;;;;;11.68;6.28;;;-3.10;73.20;;;;;;5022405;28;20041;-67
2022/03/14 04:33:23;;;;;;;10.95;5.45;;;-3.20;72.50;;;;;;5020528;28;20037;-83
2022/03/14 04:35:49;;;;;;;11.45;6.05;;;-3.20;72.30;;;;;;5024540;28;20042;-66
2022/03/14 04:38:18;;;;;;;13.98;7.57;;;-3.20;73.20;;;;;;5028132;28;20061;-66
2022/03/14 04:40:43;;;;;;;12.95;7.65;;;-3.10;72.80;;;;;;5022909;28;20383;-67
2022/03/14 04:43:10;;;;;;;14.70;6.95;;;-3.10;73.10;;;;;;5044507;28;20110;-66
2022/03/14 04:45:38;;;;;;;11.80;6.80;;;-3.00;72.60;;;;;;5021896;28;25096;-67
2022/03/14 04:48:06;;;;;;;19.45;9.32;;;-3.00;72.10;;;;;;5043307;28;20041;-67
2022/03/14 04:50:32;;;;;;;22.08;11.43;;;-3.00;72.50;;;;;;5037924;28;20128;-66
2022/03/14 04:52:58;;;;;;;18.90;11.13;;;-3.00;72.30;;;;;;5010208;28;20048;-66
2022/03/14 04:55:24;;;;;;;15.90;9.68;;;-3.00;72.30;;;;;;5042235;28;20055;-66
2022/03/14 04:57:51;;;;;;;20.73;11.38;;;-3.00;71.50;;;;;;5041409;28;20045;-66
2022/03/14 05:00:17;;;;;;;22.20;12.57;;;-3.10;72.30;;;;;;5024154;28;20040;-66
2022/03/14 05:02:43;;;;;;;21.70;12.95;;;-3.00;73.50;;;;;;5039327;28;20044;-68
2022/03/14 05:05:13;;;;;;;19.48;10.68;;;-3.00;73.50;;;;;;5043537;28;20116;-67
2022/03/14 05:07:40;;;;;;;21.48;12.13;;;-3.00;73.70;;;;;;5038540;28;20048;-66
2022/03/14 05:10:06;;;;;;;30.95;18.10;;;-3.00;73.70;;;;;;5037464;28;20131;-66
2022/03/14 05:12:33;;;;;;;16.90;10.40;;;-2.90;73.00;;;;;;5038868;28;20106;-66
2022/03/14 05:14:58;;;;;;;31.45;16.25;;;-2.80;73.20;;;;;;5044033;28;20037;-66
2022/03/14 05:17:30;;;;;;;19.30;12.57;;;-2.80;73.00;;;;;;5043023;28;20083;-67
2022/03/14 05:19:56;;;;;;;;;;;-2.80;74.10;;;;;;5037773;28;20036;-66
2022/03/14 05:22:22;;;;;;;14.95;9.82;;;-2.80;74.30;;;;;;5034758;28;19924;-67
2022/03/14 05:24:48;;;;;;;18.83;11.18;;;-2.80;74.60;;;;;;5042070;28;20048;-66
2022/03/14 05:27:14;;;;;;;14.00;7.20;;;-2.80;75.30;;;;;;5040846;28;20147;-66
2022/03/14 05:29:39;;;;;;;12.23;7.18;;;-2.90;74.70;;;;;;5039099;28;20513;-66
2022/03/14 05:32:06;;;;;;;8.88;5.68;;;-3.00;75.10;;;;;;5037697;28;20064;-83
2022/03/14 05:34:32;;;;;;;10.50;6.32;;;-3.10;75.20;;;;;;5038422;28;20041;-84
2022/03/14 05:36:58;;;;;;;12.25;6.05;;;-3.10;74.90;;;;;;5046221;28;20171;-84
2022/03/14 05:39:24;;;;;;;10.35;6.20;;;-2.90;75.50;;;;;;5027035;28;20088;-84
2022/03/14 05:41:49;;;;;;;10.35;6.22;;;-2.80;74.70;;;;;;5018942;28;20045;-84
2022/03/14 05:44:15;;;;;;;12.57;8.00;;;-2.70;74.70;;;;;;5026570;28;20375;-84
2022/03/14 05:46:41;;;;;;;19.23;8.98;;;-2.50;74.50;;;;;;5017103;28;20049;-84
2022/03/14 05:49:06;;;;;;;18.40;8.75;;;-2.40;72.90;;;;;;5019130;28;20422;-83
2022/03/14 05:51:36;;;;;;;19.95;9.45;;;-2.30;73.70;;;;;;5021812;28;20045;-67
2022/03/14 05:54:03;;;;;;;16.60;9.13;;;-2.00;73.30;;;;;;5004899;28;20555;-66
2022/03/14 05:56:29;;;;;;;14.40;8.93;;;-1.80;71.60;;;;;;5023503;28;20052;-67
2022/03/14 05:58:55;;;;;;;18.67;11.13;;;-1.80;71.00;;;;;;5021875;28;20054;-66
2022/03/14 06:01:21;;;;;;;28.27;14.43;;;-1.90;71.70;;;;;;5022884;28;20041;-66
2022/03/14 06:03:51;;;;;;;22.63;11.45;;;-1.60;72.70;;;;;;5014170;28;20025;-67
2022/03/14 06:06:16;;;;;;;15.68;8.63;;;-1.30;71.80;;;;;;5015917;28;20102;-67
2022/03/14 06:08:42;;;;;;;14.15;9.07;;;-1.10;70.80;;;;;;5022950;28;20029;-66
2022/03/14 06:11:08;;;;;;;29.30;14.43;;;-1.00;70.70;;;;;;5018148;28;20548;-67
2022/03/14 06:13:34;;;;;;;22.42;12.10;;;-0.90;69.50;;;;;;5016865;28;20536;-66
2022/03/14 06:16:00;;;;;;;74.78;29.05;;;-0.80;69.60;;;;;;5021448;28;20160;-66
2022/03/14 06:18:26;;;;;;;82.50;30.02;;;-0.70;68.80;;;;;;5027519;28;20104;-67
2022/03/14 06:20:51;;;;;;;60.42;26.50;;;-0.80;69.90;;;;;;5019523;28;20118;-67
2022/03/14 06:23:17;;;;;;;60.50;25.88;;;-0.70;70.60;;;;;;5015074;28;20438;-67
2022/03/14 06:25:43;;;;;;;78.93;35.03;;;-0.30;70.00;;;;;;5018686;28;20048;-66
2022/03/14 06:28:08;;;;;;;116.15;50.92;;;0.00;69.20;;;;;;5017893;28;20477;-66
2022/03/14 06:30:34;;;;;;;65.13;33.60;;;0.10;67.00;;;;;;5021611;28;20092;-82
2022/03/14 06:33:00;;;;;;;74.18;36.60;;;0.30;67.00;;;;;;5021434;28;20401;-82
2022/03/14 06:35:26;;;;;;;78.85;40.17;;;0.50;66.40;;;;;;5021462;28;20553;-81
2022/03/14 06:37:52;;;;;;;60.60;33.13;;;0.60;67.50;;;;;;5019722;28;20575;-82
2022/03/14 06:40:19;;;;;;;45.40;24.15;;;0.70;65.10;;;;;;5015696;28;20068;-68
2022/03/14 06:42:48;;;;;;;39.30;20.75;;;0.90;64.00;;;;;;5023068;28;20111;-76
2022/03/14 06:45:19;;;;;;;47.85;25.70;;;1.00;64.70;;;;;;5029546;28;20021;-79
2022/03/14 06:47:45;;;;;;;50.20;27.08;;;1.20;64.60;;;;;;5027160;28;20088;-75
2022/03/14 06:50:11;;;;;;;44.15;27.17;;;1.40;63.40;;;;;;5019715;28;20029;-67
2022/03/14 06:52:36;;;;;;;44.95;27.85;;;1.50;62.60;;;;;;5016717;28;20112;-66
2022/03/14 06:55:05;;;;;;;52.67;29.25;;;1.60;61.60;;;;;;5019641;28;20124;-67
2022/03/14 06:57:31;;;;;;;46.08;27.83;;;1.80;61.90;;;;;;5016601;28;20060;-66
2022/03/14 06:59:57;;;;;;;42.67;24.33;;;2.00;61.80;;;;;;5021914;28;20127;-67
2022/03/14 07:02:26;;;;;;;43.90;24.73;;;2.10;61.90;;;;;;5009974;28;20132;-66
2022/03/14 07:04:52;;;;;;;52.13;28.77;;;2.20;61.90;;;;;;5018737;28;20029;-65
2022/03/14 07:07:18;;;;;;;44.40;26.42;;;2.40;62.40;;;;;;5019752;28;20060;-76
2022/03/14 07:09:43;;;;;;;37.45;23.05;;;2.60;63.10;;;;;;5011138;28;20052;-76
2022/03/14 07:12:13;;;;;;;37.53;21.70;;;2.80;63.10;;;;;;5030434;28;20099;-76
2022/03/14 07:14:39;;;;;;;41.05;22.15;;;3.00;62.60;;;;;;5029885;28;20029;-78
2022/03/14 07:17:05;;;;;;;27.23;16.88;;;3.30;62.40;;;;;;5032565;28;20067;-79
2022/03/14 07:19:31;;;;;;;23.70;14.98;;;3.60;62.20;;;;;;5033105;28;20815;-76
2022/03/14 07:21:57;;;;;;;19.95;13.40;;;3.90;60.60;;;;;;5027668;28;21703;-77
2022/03/14 07:24:22;;;;;;;25.92;15.13;;;4.30;58.80;;;;;;5026187;28;20060;-78
2022/03/14 07:26:49;;;;;;;21.65;13.77;;;4.60;56.80;;;;;;5026705;28;20044;-69
2022/03/14 07:29:15;;;;;;;19.38;12.02;;;5.00;50.50;;;;;;5017867;28;20060;-68
2022/03/14 07:31:41;;;;;;;22.30;13.43;;;5.40;47.00;;;;;;5014792;28;20073;-69
2022/03/14 07:34:08;;;;;;;18.90;11.52;;;5.70;45.60;;;;;;5017741;28;20039;-69
2022/03/14 07:36:34;;;;;;;15.63;10.68;;;6.00;44.20;;;;;;5019093;28;20049;-68
2022/03/14 07:39:01;;;;;;;33.10;12.88;;;6.30;43.10;;;;;;5026537;28;21233;-70
2022/03/14 07:41:27;;;;;;;18.90;10.95;;;7.10;57.00;;;;;;5031857;28;20040;-70
2022/03/14 07:43:53;;;;;;;17.98;11.52;;;8.50;51.80;;;;;;5034680;28;20080;-66
2022/03/14 07:46:18;;;;;;;28.33;16.52;;;9.20;41.70;;;;;;5035956;28;20433;-66
2022/03/14 07:48:44;;;;;;;17.02;12.30;;;8.80;40.20;;;;;;5037344;28;20555;-64
2022/03/14 07:51:10;;;;;;;16.52;9.90;;;8.50;40.00;;;;;;5037110;28;20041;-66
2022/03/14 07:53:36;;;;;;;16.67;9.68;;;8.30;38.90;;;;;;5037639;28;20059;-65
2022/03/14 07:56:01;;;;;;;15.15;10.82;;;8.10;39.30;;;;;;5022725;28;20497;-66
2022/03/14 07:58:27;;;;;;;21.20;13.13;;;8.10;40.30;;;;;;5033838;28;21003;-65
2022/03/14 08:00:54;;;;;;;16.67;9.32;;;8.20;39.00;;;;;;5036396;28;20037;-66
2022/03/14 08:03:21;;;;;;;49.95;30.58;;;8.10;38.50;;;;;;5036078;28;20427;-66
2022/03/14 08:05:48;;;;;;;18.75;12.55;;;8.20;38.10;;;;;;5035780;28;20029;-65
2022/03/14 08:08:17;;;;;;;26.52;17.20;;;8.30;38.10;;;;;;5034677;28;20163;-65
2022/03/14 08:10:42;;;;;;;17.73;11.10;;;8.40;38.70;;;;;;5032137;28;20047;-65
2022/03/14 08:13:08;;;;;;;27.60;17.23;;;8.40;37.40;;;;;;5035999;28;20057;-66
2022/03/14 08:15:38;;;;;;;12.25;9.10;;;8.30;38.20;;;;;;5021734;28;20527;-66
2022/03/14 08:18:07;;;;;;;12.32;8.82;;;8.40;37.20;;;;;;5037509;28;20053;-65
2022/03/14 08:20:33;;;;;;;14.60;11.18;;;8.60;38.00;;;;;;5031950;28;20052;-65
2022/03/14 08:23:02;;;;;;;19.15;13.68;;;8.70;36.40;;;;;;5038897;28;20130;-65
2022/03/14 08:25:29;;;;;;;35.65;25.65;;;8.70;36.60;;;;;;5035401;28;20092;-65
2022/03/14 08:27:55;;;;;;;13.98;10.20;;;8.60;36.80;;;;;;5025944;28;20076;-65
2022/03/14 08:30:22;;;;;;;18.90;12.23;;;8.60;37.40;;;;;;5036871;28;20047;-65
2022/03/14 08:32:49;;;;;;;26.50;16.13;;;8.70;36.90;;;;;;5034598;28;20501;-65
2022/03/14 08:35:18;;;;;;;16.67;9.18;;;8.80;37.50;;;;;;5043178;28;20081;-66
2022/03/14 08:37:45;;;;;;;11.52;7.90;;;9.10;35.30;;;;;;5036327;28;20127;-65
2022/03/14 08:40:14;;;;;;;13.25;9.65;;;9.20;34.60;;;;;;5017393;28;20040;-66
2022/03/14 08:42:41;;;;;;;21.08;7.22;;;9.20;34.30;;;;;;5019397;28;20041;-71
2022/03/14 08:45:08;;;;;;;8.70;6.28;;;9.30;33.90;;;;;;5000496;28;20132;-71
2022/03/14 08:47:34;;;;;;;9.50;6.90;;;9.20;33.90;;;;;;5018008;28;20045;-70
2022/03/14 08:50:02;;;;;;;13.38;6.38;;;9.20;33.90;;;;;;5020770;28;20038;-70
2022/03/14 08:52:29;;;;;;;8.45;6.55;;;9.20;32.80;;;;;;5019384;28;20025;-71
2022/03/14 08:54:55;;;;;;;9.30;6.32;;;9.20;32.70;;;;;;5021667;28;20056;-71
2022/03/14 08:57:21;;;;;;;16.83;11.65;;;9.10;33.30;;;;;;5015503;28;20766;-71
2022/03/14 08:59:47;;;;;;;16.65;10.13;;;9.10;33.60;;;;;;5017290;28;20041;-72
2022/03/14 09:02:13;;;;;;;9.85;8.10;;;9.30;33.00;;;;;;5018209;28;20045;-73
2022/03/14 09:04:38;;;;;;;8.35;6.97;;;9.40;33.00;;;;;;5023874;28;20562;-71
2022/03/14 09:07:05;;;;;;;15.40;10.07;;;9.40;33.00;;;;;;4998355;28;20119;-71
2022/03/14 09:09:31;;;;;;;9.85;6.10;;;9.50;33.10;;;;;;5016366;28;20037;-71
2022/03/14 09:11:58;;;;;;;10.15;6.03;;;9.50;32.50;;;;;;5004617;28;20647;-71
2022/03/14 09:14:24;;;;;;;7.88;5.82;;;9.40;32.10;;;;;;5021282;28;20053;-74
2022/03/14 09:16:51;;;;;;;12.40;6.60;;;9.40;32.30;;;;;;5014900;28;20777;-73
2022/03/14 09:19:17;;;;;;;8.48;6.10;;;9.50;32.40;;;;;;5004719;28;20057;-71
2022/03/14 09:21:43;;;;;;;7.15;5.20;;;9.60;32.30;;;;;;5016784;28;20463;-72
2022/03/14 09:24:08;;;;;;;9.23;6.75;;;9.60;31.50;;;;;;5022048;28;20577;-71
2022/03/14 09:26:35;;;;;;;15.38;13.52;;;9.60;31.60;;;;;;5020670;28;20056;-70
2022/03/14 09:29:02;;;;;;;8.70;6.47;;;9.70;31.50;;;;;;5017942;28;20423;-72
2022/03/14 09:31:29;;;;;;;7.57;4.78;;;9.70;32.10;;;;;;5018005;28;20120;-72
2022/03/14 09:33:55;;;;;;;8.57;5.50;;;9.80;31.50;;;;;;5024026;28;20173;-66
2022/03/14 09:36:20;;;;;;;7.88;5.05;;;9.90;31.70;;;;;;5020356;28;20042;-73
2022/03/14 09:38:46;;;;;;;6.60;5.28;;;10.00;30.90;;;;;;5023139;28;20053;-73
2022/03/14 09:41:15;;;;;;;7.97;6.03;;;10.00;30.30;;;;;;5013494;28;20116;-66
2022/03/14 09:43:44;;;;;;;8.73;5.57;;;9.90;30.60;;;;;;5008728;28;20501;-66
2022/03/14 09:46:12;;;;;;;12.25;5.95;;;10.00;30.80;;;;;;4997986;28;20017;-66
2022/03/14 09:48:40;;;;;;;9.68;6.40;;;10.20;30.30;;;;;;5018470;28;20694;-64
2022/03/14 09:51:07;;;;;;;10.57;6.60;;;10.20;30.60;;;;;;5017071;28;20454;-65
2022/03/14 09:53:34;;;;;;;9.35;6.35;;;10.10;30.60;;;;;;5013895;28;20037;-66
2022/03/14 09:56:00;;;;;;;12.55;7.28;;;10.20;31.00;;;;;;5019328;28;20573;-65
2022/03/14 09:58:26;;;;;;;12.45;7.32;;;10.40;31.00;;;;;;5016145;28;21667;-65
2022/03/14 10:00:53;;;;;;;11.60;5.50;;;10.60;30.50;;;;;;5000044;28;20029;-66
2022/03/14 10:03:21;;;;;;;10.52;6.35;;;10.70;30.60;;;;;;5021090;28;20080;-65
2022/03/14 10:05:47;;;;;;;9.50;7.22;;;10.90;30.00;;;;;;4983486;28;20738;-65
2022/03/14 10:08:14;;;;;;;15.20;7.82;;;10.90;30.30;;;;;;5016795;28;20053;-65
2022/03/14 10:10:41;;;;;;;10.02;7.63;;;10.80;30.20;;;;;;5013953;28;20108;-65
2022/03/14 10:13:08;;;;;;;10.50;7.32;;;10.90;30.70;;;;;;5019511;28;20060;-65
2022/03/14 10:15:37;;;;;;;19.45;13.30;;;10.80;30.60;;;;;;5015857;28;20041;-64
2022/03/14 10:18:10;;;;;;;101.88;77.15;;;10.80;31.00;;;;;;5019147;28;20053;-65
2022/03/14 10:20:36;;;;;;;13.00;8.48;;;10.90;30.60;;;;;;4986648;28;20030;-65
2022/03/14 10:23:02;;;;;;;54.15;39.65;;;11.00;31.20;;;;;;5026258;28;20068;-65
2022/03/14 10:25:28;;;;;;;53.13;43.85;;;11.10;31.50;;;;;;5016072;28;20118;-65
2022/03/14 10:27:57;;;;;;;16.63;13.35;;;11.30;31.10;;;;;;5012177;28;20124;-65
2022/03/14 10:30:32;;;;;;;13.10;8.15;;;11.40;31.30;;;;;;5019418;28;20406;-64
2022/03/14 10:33:12;;;;;;;10.25;8.15;;;11.60;31.00;;;;;;5021889;28;20066;-64
2022/03/14 10:35:42;;;;;;;14.23;8.88;;;11.80;30.40;;;;;;5017885;28;20033;-65
2022/03/14 10:38:13;;;;;;;9.52;7.30;;;11.90;31.00;;;;;;5025874;28;20044;-65
2022/03/14 10:40:42;;;;;;;13.32;7.90;;;11.90;31.10;;;;;;5044581;28;20048;-65
2022/03/14 10:43:21;;;;;;;19.02;7.82;;;11.90;30.50;;;;;;5035455;28;20060;-66
2022/03/14 10:45:46;;;;;;;8.88;6.72;;;11.90;31.10;;;;;;5037435;28;20381;-64
2022/03/14 10:48:12;;;;;;;12.73;7.20;;;12.00;30.90;;;;;;5037926;28;20037;-64
2022/03/14 10:50:39;;;;;;;8.77;6.85;;;12.10;30.30;;;;;;5018570;28;20047;-64
2022/03/14 10:53:05;;;;;;;9.52;7.00;;;12.10;30.30;;;;;;5041015;28;21331;-64
2022/03/14 10:55:35;;;;;;;17.92;16.23;;;11.90;29.90;;;;;;5037060;28;20037;-64
2022/03/14 10:58:14;;;;;;;7.10;6.00;;;11.90;30.70;;;;;;5036734;28;20053;-65
2022/03/14 11:00:56;;;;;;;7.72;6.05;;;12.10;30.10;;;;;;5038451;28;20048;-66
2022/03/14 11:03:30;;;;;;;7.90;5.72;;;12.10;30.40;;;;;;5034783;28;20053;-65
2022/03/14 11:06:01;;;;;;;7.22;5.80;;;12.20;30.10;;;;;;5039106;28;20400;-64
2022/03/14 11:08:27;;;;;;;10.90;8.25;;;12.30;30.10;;;;;;5037309;28;20489;-66
2022/03/14 11:10:54;;;;;;;9.45;6.15;;;12.40;30.00;;;;;;5036535;28;20053;-65
2022/03/14 11:13:20;;;;;;;8.93;5.25;;;12.50;30.20;;;;;;5038064;28;20118;-65
2022/03/14 11:15:46;;;;;;;5.72;5.13;;;12.70;30.70;;;;;;5037184;28;20976;-69
2022/03/14 11:18:11;;;;;;;10.43;5.63;;;12.70;29.60;;;;;;5035311;28;20084;-70
2022/03/14 11:20:38;;;;;;;6.80;4.90;;;12.50;29.60;;;;;;5033025;28;20127;-69
2022/03/14 11:23:05;;;;;;;8.00;5.03;;;12.50;30.20;;;;;;5037251;28;20358;-70
2022/03/14 11:25:32;;;;;;;8.88;5.22;;;12.40;30.40;;;;;;5042840;28;20045;-70
2022/03/14 11:27:58;;;;;;;9.10;4.82;;;12.50;30.40;;;;;;5035996;28;20123;-68
2022/03/14 11:30:26;;;;;;;9.57;5.47;;;12.60;30.40;;;;;;5038191;28;20165;-69
2022/03/14 11:32:52;;;;;;;6.97;4.88;;;12.60;30.30;;;;;;5019241;28;20044;-69
2022/03/14 11:35:18;;;;;;;7.38;5.63;;;12.60;30.30;;;;;;5044790;28;20028;-63
2022/03/14 11:37:46;;;;;;;7.57;4.72;;;12.60;29.80;;;;;;5038450;28;20581;-64
2022/03/14 11:40:14;;;;;;;6.60;5.10;;;12.40;29.90;;;;;;5039069;28;20045;-63
2022/03/14 11:42:40;;;;;;;6.25;4.57;;;12.40;30.50;;;;;;5036284;28;20595;-64
2022/03/14 11:45:07;;;;;;;9.10;5.53;;;12.50;31.00;;;;;;5046887;28;20029;-64
2022/03/14 11:47:33;;;;;;;7.18;5.75;;;12.60;31.00;;;;;;5037873;28;20052;-64
2022/03/14 11:50:00;;;;;;;6.75;4.50;;;12.80;31.40;;;;;;5042025;28;20030;-64
2022/03/14 11:52:39;;;;;;;7.00;5.30;;;12.70;31.00;;;;;;5043507;28;20037;-64
2022/03/14 11:55:25;;;;;;;6.75;4.70;;;12.80;31.50;;;;;;5044003;28;20094;-70
2022/03/14 11:57:51;;;;;;;8.88;5.90;;;12.90;30.40;;;;;;5041744;28;20091;-70
2022/03/14 12:00:32;;;;;;;6.78;4.60;;;12.80;30.60;;;;;;5048870;28;20122;-72
2022/03/14 12:03:06;;;;;;;9.20;5.00;;;12.90;31.00;;;;;;5028134;28;20063;-69
2022/03/14 12:05:31;;;;;;;8.75;6.28;;;12.80;31.50;;;;;;5051063;28;20049;-70
2022/03/14 12:07:58;;;;;;;8.10;5.28;;;13.00;31.20;;;;;;5053167;28;20048;-68
2022/03/14 12:10:28;;;;;;;7.18;4.75;;;13.20;30.20;;;;;;5050646;28;20569;-70
2022/03/14 12:12:54;;;;;;;7.80;5.55;;;13.20;30.40;;;;;;5049637;28;20096;-65
2022/03/14 12:15:41;;;;;;;8.95;5.60;;;13.20;31.30;;;;;;5049324;28;20025;-65
2022/03/14 12:18:25;;;;;;;6.70;5.07;;;13.20;30.60;;;;;;5048898;28;20102;-64
2022/03/14 12:21:03;;;;;;;7.97;4.47;;;13.20;31.20;;;;;;5053622;28;20612;-63
2022/03/14 12:23:33;;;;;;;5.35;4.70;;;13.40;30.60;;;;;;5047251;28;20417;-64
2022/03/14 12:26:01;;;;;;;11.02;8.23;;;13.40;30.80;;;;;;5043262;28;20052;-64
2022/03/14 12:28:33;;;;;;;8.43;4.55;;;13.50;30.70;;;;;;5046177;28;20064;-64
2022/03/14 12:31:10;;;;;;;5.22;4.70;;;13.40;30.10;;;;;;5048545;28;20045;-65
2022/03/14 12:33:38;;;;;;;5.35;4.78;;;13.40;30.10;;;;;;5045659;28;20067;-64
2022/03/14 12:36:19;;;;;;;5.55;4.95;;;13.40;30.50;;;;;;5015543;28;20141;-64
2022/03/14 12:39:06;;;;;;;9.73;5.07;;;13.60;30.00;;;;;;5046157;28;20171;-65
2022/03/14 12:41:36;;;;;;;14.30;7.43;;;13.60;30.10;;;;;;5053319;28;20051;-66